Time;durP1;ratioP1;P1;durP2;ratioP2;P2;SDS_P1;SDS_P2;PMS_P1;PMS_P2;Temp;Humidity;BMP_temperature;BMP_pressure;BME280_temperature;BME280_humidity;BME280_pressure;Samples;Min_cycle;Max_cycle;Signal;HPM_P1;HPM_P2
2022/07/30 00:00:10;;;;;;;3.45;1.77;;;16.60;99.90;;;;;;5052350;28;36041;-63
2022/07/30 00:02:38;;;;;;;4.65;2.60;;;16.60;99.90;;;;;;5052741;28;36416;-62
2022/07/30 00:05:06;;;;;;;4.20;2.30;;;16.50;99.90;;;;;;5052536;28;40364;-62
2022/07/30 00:07:34;;;;;;;3.65;2.25;;;16.50;99.90;;;;;;5052727;28;37998;-63
2022/07/30 00:10:01;;;;;;;3.88;2.20;;;16.50;99.90;;;;;;5053902;28;37441;-61
2022/07/30 00:12:29;;;;;;;3.92;2.03;;;16.50;99.90;;;;;;5053370;28;37193;-63
2022/07/30 00:14:57;;;;;;;6.85;2.65;;;16.40;99.90;;;;;;5053492;28;40373;-62
2022/07/30 00:17:25;;;;;;;22.02;4.03;;;16.30;99.90;;;;;;5051327;28;36384;-62
2022/07/30 00:19:52;;;;;;;10.18;5.68;;;16.30;99.90;;;;;;5051399;28;38530;-62
2022/07/30 00:22:19;;;;;;;8.05;5.18;;;16.30;99.90;;;;;;5047886;28;36404;-62
2022/07/30 00:24:47;;;;;;;8.32;4.60;;;16.30;99.90;;;;;;5050831;28;38050;-62
2022/07/30 00:27:14;;;;;;;10.85;5.20;;;16.20;99.90;;;;;;5049410;28;37465;-62
2022/07/30 00:29:41;;;;;;;9.52;5.15;;;16.20;99.90;;;;;;5047628;28;38273;-62
2022/07/30 00:32:10;;;;;;;9.23;5.68;;;16.20;99.90;;;;;;5049915;28;36800;-63
2022/07/30 00:34:38;;;;;;;8.63;5.55;;;16.20;99.90;;;;;;5046108;28;37113;-62
2022/07/30 00:37:05;;;;;;;7.35;5.53;;;16.20;99.90;;;;;;5047914;28;37674;-62
2022/07/30 00:39:32;;;;;;;9.73;5.68;;;16.20;99.90;;;;;;5050820;28;34198;-62
2022/07/30 00:42:02;;;;;;;9.18;5.63;;;16.20;99.90;;;;;;5050682;28;36630;-63
2022/07/30 00:44:29;;;;;;;9.07;6.53;;;16.20;99.90;;;;;;5055333;28;36264;-62
2022/07/30 00:46:57;;;;;;;11.63;6.63;;;16.10;99.90;;;;;;5049410;28;37767;-62
2022/07/30 00:49:27;;;;;;;8.95;6.05;;;16.10;99.90;;;;;;5050520;28;21200;-62
2022/07/30 00:51:55;;;;;;;9.35;6.45;;;16.10;99.90;;;;;;5052001;28;36755;-62
2022/07/30 00:54:22;;;;;;;12.05;6.65;;;16.10;99.90;;;;;;5052517;28;38027;-62
2022/07/30 00:56:50;;;;;;;11.65;7.88;;;16.10;99.90;;;;;;5049784;28;39072;-62
2022/07/30 00:59:17;;;;;;;11.98;7.38;;;16.00;99.90;;;;;;5056985;28;38860;-63
2022/07/30 01:01:44;;;;;;;14.00;7.88;;;16.00;99.90;;;;;;5056708;28;37005;-62
2022/07/30 01:04:12;;;;;;;11.93;9.13;;;16.00;99.90;;;;;;5056717;28;39233;-62
2022/07/30 01:06:41;;;;;;;15.70;9.57;;;16.00;99.90;;;;;;5051131;28;36416;-62
2022/07/30 01:09:08;;;;;;;15.95;9.50;;;16.00;99.90;;;;;;5052956;28;38112;-62
2022/07/30 01:11:38;;;;;;;14.55;9.80;;;16.00;99.90;;;;;;5051939;28;36535;-62
2022/07/30 01:14:08;;;;;;;12.65;9.23;;;16.00;99.90;;;;;;5053212;28;37591;-62
2022/07/30 01:16:36;;;;;;;12.93;7.82;;;15.90;99.90;;;;;;5051896;28;37699;-63
2022/07/30 01:22:12;;;;;;;12.38;8.00;;;16.00;99.90;;;;;;5045311;28;37267;-62
2022/07/30 01:24:43;;;;;;;8.38;5.20;;;16.00;99.90;;;;;;5047897;28;38048;-62
2022/07/30 01:27:14;;;;;;;9.35;5.53;;;15.90;99.90;;;;;;5048663;28;38613;-62
2022/07/30 01:29:44;;;;;;;9.82;5.35;;;15.90;99.90;;;;;;5050650;28;37190;-62
2022/07/30 01:32:13;;;;;;;11.15;7.63;;;15.90;99.90;;;;;;5051603;28;35950;-63
2022/07/30 01:34:44;;;;;;;10.13;8.07;;;15.90;99.90;;;;;;5055163;28;41522;-62
2022/07/30 01:37:12;;;;;;;11.82;4.97;;;15.80;99.90;;;;;;5052563;28;37508;-62
2022/07/30 01:39:39;;;;;;;11.63;5.70;;;15.80;99.90;;;;;;5053378;28;37886;-63
2022/07/30 01:42:08;;;;;;;12.30;7.88;;;15.80;99.90;;;;;;5051574;28;34684;-62
2022/07/30 01:44:38;;;;;;;11.75;7.45;;;15.70;99.90;;;;;;5052945;28;35147;-63
2022/07/30 01:47:08;;;;;;;9.02;4.90;;;15.70;99.90;;;;;;5050190;28;37780;-62
2022/07/30 01:49:37;;;;;;;11.43;7.38;;;15.70;99.90;;;;;;5052031;28;37215;-62
2022/07/30 01:52:06;;;;;;;11.82;7.07;;;15.70;99.90;;;;;;5051406;28;36569;-62
2022/07/30 01:54:34;;;;;;;13.52;7.40;;;15.70;99.90;;;;;;5050324;28;38131;-62
2022/07/30 01:57:02;;;;;;;10.30;7.38;;;15.70;99.90;;;;;;5050682;28;38265;-62
2022/07/30 01:59:33;;;;;;;9.18;6.75;;;15.70;99.90;;;;;;5054560;28;36449;-62
2022/07/30 02:02:02;;;;;;;8.30;6.28;;;15.70;99.90;;;;;;5049523;28;36749;-62
2022/07/30 02:04:30;;;;;;;12.00;8.10;;;15.70;99.90;;;;;;5053856;28;37754;-62
2022/07/30 02:07:03;;;;;;;10.13;7.60;;;15.70;99.90;;;;;;5053243;28;41170;-62
2022/07/30 02:09:35;;;;;;;13.25;8.40;;;15.60;99.90;;;;;;5051994;28;37467;-63
2022/07/30 02:14:54;;;;;;;11.35;8.52;;;15.60;99.90;;;;;;5053274;28;38756;-62
2022/07/30 02:17:28;;;;;;;10.65;8.32;;;15.60;99.90;;;;;;5050283;28;35913;-62
2022/07/30 02:19:57;;;;;;;10.90;7.80;;;15.60;99.90;;;;;;5049888;28;38527;-62
2022/07/30 02:22:27;;;;;;;12.98;8.32;;;15.60;99.90;;;;;;5047807;28;36303;-63
2022/07/30 02:24:59;;;;;;;11.50;7.80;;;15.60;99.90;;;;;;5048073;28;37658;-62
2022/07/30 02:27:29;;;;;;;10.70;6.90;;;15.60;99.90;;;;;;5048181;28;38159;-62
2022/07/30 02:29:59;;;;;;;9.32;6.60;;;15.50;99.90;;;;;;5059562;28;37940;-62
2022/07/30 02:32:35;;;;;;;8.90;6.38;;;15.50;99.90;;;;;;5049859;28;37020;-62
2022/07/30 02:35:09;;;;;;;10.25;6.85;;;15.50;99.90;;;;;;5049332;28;36413;-63
2022/07/30 02:37:38;;;;;;;8.77;5.40;;;15.50;99.90;;;;;;5056630;28;40140;-62
2022/07/30 02:40:06;;;;;;;11.27;6.93;;;15.50;99.90;;;;;;5058645;28;37807;-62
2022/07/30 02:42:35;;;;;;;11.63;7.93;;;15.40;99.90;;;;;;5050868;28;35195;-62
2022/07/30 02:45:03;;;;;;;13.02;7.60;;;15.40;99.90;;;;;;5055221;28;38201;-62
2022/07/30 02:47:32;;;;;;;10.90;7.82;;;15.40;99.90;;;;;;5053712;28;41054;-62
2022/07/30 02:50:01;;;;;;;10.02;7.57;;;15.30;99.90;;;;;;5055261;28;36307;-62
2022/07/30 02:52:30;;;;;;;12.90;7.97;;;15.30;99.90;;;;;;5058355;28;37243;-62
2022/07/30 02:54:58;;;;;;;12.63;7.75;;;15.30;99.90;;;;;;5057788;28;36267;-63
2022/07/30 02:57:27;;;;;;;10.88;6.97;;;15.30;99.90;;;;;;5057690;28;38632;-62
2022/07/30 02:59:56;;;;;;;9.82;7.40;;;15.30;99.90;;;;;;5058555;28;38298;-62
2022/07/30 03:02:24;;;;;;;12.07;7.63;;;15.30;99.90;;;;;;5050793;28;36554;-63
2022/07/30 03:04:54;;;;;;;9.93;7.15;;;15.40;99.90;;;;;;5048162;28;38959;-62
2022/07/30 03:07:22;;;;;;;11.15;6.68;;;15.40;99.90;;;;;;5046667;28;38691;-62
2022/07/30 03:09:54;;;;;;;14.30;8.02;;;15.40;99.90;;;;;;5044634;28;36734;-62
2022/07/30 03:12:22;;;;;;;10.95;7.45;;;15.40;99.90;;;;;;5051168;28;36547;-62
2022/07/30 03:14:50;;;;;;;10.02;6.18;;;15.40;99.90;;;;;;5052663;28;37631;-62
2022/07/30 03:17:19;;;;;;;5.35;2.90;;;15.30;99.90;;;;;;5051184;28;38732;-62
2022/07/30 03:19:49;;;;;;;4.60;2.60;;;15.30;99.90;;;;;;5053448;28;38900;-62
2022/07/30 03:22:19;;;;;;;4.78;2.85;;;15.20;99.90;;;;;;5052881;28;35361;-63
2022/07/30 03:24:49;;;;;;;8.70;4.63;;;15.20;99.90;;;;;;5051813;28;37093;-62
2022/07/30 03:27:18;;;;;;;7.15;4.85;;;15.10;99.90;;;;;;5052591;28;36908;-62
2022/07/30 03:29:47;;;;;;;9.38;6.68;;;15.10;99.90;;;;;;5048477;28;37250;-62
2022/07/30 03:32:15;;;;;;;9.98;6.65;;;15.10;99.90;;;;;;5048681;28;36557;-62
2022/07/30 03:34:43;;;;;;;5.15;2.22;;;15.10;99.90;;;;;;5052385;28;39087;-62
2022/07/30 03:37:11;;;;;;;2.55;1.52;;;15.10;99.90;;;;;;5048257;28;36751;-62
2022/07/30 03:39:40;;;;;;;3.80;2.00;;;15.00;99.90;;;;;;5057753;28;36295;-62
2022/07/30 03:42:08;;;;;;;5.32;2.65;;;15.00;99.90;;;;;;5053069;28;36483;-63
2022/07/30 03:44:37;;;;;;;4.97;3.17;;;14.90;99.90;;;;;;5058572;28;36401;-62
2022/07/30 03:47:06;;;;;;;5.47;3.28;;;14.90;99.90;;;;;;5050946;28;36455;-62
2022/07/30 03:49:33;;;;;;;5.50;3.95;;;14.80;99.90;;;;;;5052902;28;38762;-62
2022/07/30 03:52:03;;;;;;;4.63;2.70;;;14.90;99.90;;;;;;5051027;28;36970;-62
2022/07/30 03:54:33;;;;;;;5.68;2.60;;;14.90;99.90;;;;;;5050318;28;38825;-62
2022/07/30 03:57:02;;;;;;;7.22;4.88;;;14.90;99.90;;;;;;5052494;28;38475;-62
2022/07/30 03:59:30;;;;;;;6.18;4.50;;;14.90;99.90;;;;;;5057786;28;38899;-62
2022/07/30 04:02:00;;;;;;;6.43;4.03;;;14.90;99.90;;;;;;5056640;28;36317;-62
2022/07/30 04:04:29;;;;;;;6.78;3.28;;;14.80;99.90;;;;;;5057760;28;38774;-62
2022/07/30 04:06:57;;;;;;;3.65;2.20;;;14.80;99.90;;;;;;5056472;28;37502;-62
2022/07/30 04:09:25;;;;;;;4.65;3.03;;;14.90;99.90;;;;;;5056452;28;37045;-63
2022/07/30 04:11:52;;;;;;;4.70;2.85;;;14.80;99.90;;;;;;5057708;28;36478;-62
2022/07/30 04:14:21;;;;;;;4.78;3.08;;;14.80;99.90;;;;;;5053024;28;40110;-62
2022/07/30 04:16:53;;;;;;;4.90;3.42;;;14.80;99.90;;;;;;5050875;28;38301;-62
2022/07/30 04:19:25;;;;;;;5.37;3.10;;;14.80;99.90;;;;;;5052844;28;37311;-62
2022/07/30 04:21:54;;;;;;;5.07;2.95;;;14.90;99.90;;;;;;5053657;28;36403;-62
2022/07/30 04:24:22;;;;;;;5.38;3.10;;;14.90;99.90;;;;;;5051319;28;37542;-62
2022/07/30 04:26:51;;;;;;;3.85;2.22;;;14.90;99.90;;;;;;5052110;28;38357;-62
2022/07/30 04:29:21;;;;;;;4.80;2.80;;;15.00;99.90;;;;;;5053021;28;37448;-62
2022/07/30 04:31:48;;;;;;;3.65;2.22;;;15.00;99.90;;;;;;5051843;28;36413;-62
2022/07/30 04:34:16;;;;;;;4.47;2.60;;;15.10;99.90;;;;;;5051457;28;38431;-62
2022/07/30 04:36:44;;;;;;;4.57;2.55;;;15.10;99.90;;;;;;5050318;28;36454;-62
2022/07/30 04:39:12;;;;;;;3.83;2.50;;;15.20;99.90;;;;;;5054165;28;36178;-62
2022/07/30 04:41:40;;;;;;;5.18;3.53;;;15.20;99.90;;;;;;5052571;28;38861;-62
2022/07/30 04:44:07;;;;;;;6.90;3.88;;;15.30;99.90;;;;;;5051562;28;39489;-63
2022/07/30 04:46:36;;;;;;;5.60;3.63;;;15.30;99.90;;;;;;5051798;28;37797;-62
2022/07/30 04:49:03;;;;;;;5.10;3.03;;;15.40;99.90;;;;;;5051436;28;38352;-62
2022/07/30 04:51:34;;;;;;;8.05;5.07;;;15.60;99.90;;;;;;5050288;28;34237;-62
2022/07/30 04:54:02;;;;;;;7.85;5.53;;;15.60;99.90;;;;;;5053683;28;37733;-63
2022/07/30 04:56:31;;;;;;;8.68;5.90;;;15.70;99.90;;;;;;5054610;28;39987;-62
2022/07/30 04:58:59;;;;;;;10.52;6.90;;;15.80;99.90;;;;;;5050270;28;36071;-63
2022/07/30 05:01:31;;;;;;;10.13;7.05;;;15.90;99.90;;;;;;5051438;28;36612;-62
2022/07/30 05:04:01;;;;;;;10.35;6.97;;;16.00;99.90;;;;;;5051827;28;36771;-62
2022/07/30 05:06:29;;;;;;;14.55;7.82;;;16.10;99.90;;;;;;5051356;28;38328;-62
2022/07/30 05:08:58;;;;;;;12.63;7.35;;;16.20;99.90;;;;;;5054093;28;38570;-62
2022/07/30 05:11:25;;;;;;;9.30;6.88;;;16.30;99.90;;;;;;5052179;28;36381;-62
2022/07/30 05:13:53;;;;;;;13.48;8.38;;;16.40;99.90;;;;;;5055799;28;37106;-62
2022/07/30 05:16:20;;;;;;;12.60;8.98;;;16.50;99.90;;;;;;5056660;28;39031;-63
2022/07/30 05:18:47;;;;;;;9.63;8.07;;;16.60;99.90;;;;;;5056902;28;37105;-63
2022/07/30 05:21:16;;;;;;;11.77;7.90;;;16.70;99.90;;;;;;5056169;28;36303;-62
2022/07/30 05:23:43;;;;;;;10.68;8.15;;;16.80;99.90;;;;;;5056500;28;39059;-62
2022/07/30 05:26:11;;;;;;;10.43;8.05;;;16.90;99.90;;;;;;5055619;28;37518;-62
2022/07/30 05:28:38;;;;;;;12.77;8.57;;;17.00;99.90;;;;;;5056305;28;37110;-62
2022/07/30 05:31:05;;;;;;;13.60;9.90;;;17.10;99.90;;;;;;5056283;28;35942;-63
2022/07/30 05:33:33;;;;;;;12.10;8.65;;;17.10;99.90;;;;;;5054167;28;37596;-62
2022/07/30 05:36:00;;;;;;;11.38;8.07;;;17.30;99.90;;;;;;5056446;28;37401;-62
2022/07/30 05:38:29;;;;;;;12.90;9.57;;;17.40;99.90;;;;;;5057542;28;37485;-63
2022/07/30 05:40:56;;;;;;;11.38;8.88;;;17.40;99.90;;;;;;5054921;28;36718;-62
2022/07/30 05:43:24;;;;;;;9.45;7.85;;;17.60;99.90;;;;;;5056908;28;39091;-62
2022/07/30 05:45:51;;;;;;;12.07;7.40;;;17.60;99.90;;;;;;5056700;28;36314;-62
2022/07/30 05:48:18;;;;;;;15.93;9.32;;;17.70;99.90;;;;;;5055790;28;39297;-62
2022/07/30 05:50:46;;;;;;;11.75;9.20;;;17.90;99.90;;;;;;5055677;28;37533;-62
2022/07/30 05:53:13;;;;;;;13.98;10.05;;;18.00;99.90;;;;;;5053773;28;37320;-62
2022/07/30 05:55:41;;;;;;;15.98;9.82;;;18.00;99.90;;;;;;5056064;28;37670;-62
2022/07/30 05:58:09;;;;;;;13.57;8.85;;;18.10;99.90;;;;;;5054587;28;37640;-62
2022/07/30 06:00:36;;;;;;;15.18;9.25;;;18.20;99.90;;;;;;5055624;28;36334;-63
2022/07/30 06:03:03;;;;;;;12.13;8.73;;;18.30;99.90;;;;;;5054877;28;39502;-62
2022/07/30 06:05:31;;;;;;;12.68;9.48;;;18.40;99.90;;;;;;5055992;28;39423;-63
2022/07/30 06:07:59;;;;;;;12.23;9.00;;;18.50;99.90;;;;;;5053725;28;37489;-63
2022/07/30 06:10:27;;;;;;;10.77;8.20;;;18.60;99.90;;;;;;5056029;28;36009;-64
2022/07/30 06:12:55;;;;;;;15.70;8.10;;;18.70;99.90;;;;;;5056317;28;37989;-63
2022/07/30 06:15:23;;;;;;;12.23;8.27;;;18.70;99.90;;;;;;5056762;28;37990;-63
2022/07/30 06:17:50;;;;;;;19.83;8.13;;;18.80;99.90;;;;;;5056469;28;37398;-63
2022/07/30 06:20:19;;;;;;;10.43;7.75;;;18.80;99.90;;;;;;5059673;28;35414;-63
2022/07/30 06:22:46;;;;;;;11.60;8.20;;;18.90;99.90;;;;;;5059225;28;37435;-63
2022/07/30 06:25:14;;;;;;;12.75;8.02;;;18.80;99.90;;;;;;5059701;28;37584;-63
2022/07/30 06:27:42;;;;;;;11.02;7.68;;;18.80;99.90;;;;;;5059174;28;37378;-63
2022/07/30 06:30:11;;;;;;;12.82;8.00;;;18.80;99.90;;;;;;5058998;28;36482;-63
2022/07/30 06:32:38;;;;;;;13.32;7.68;;;18.90;99.90;;;;;;5057902;28;38001;-63
2022/07/30 06:35:07;;;;;;;12.10;7.72;;;19.00;99.90;;;;;;5058475;28;36423;-63
2022/07/30 06:37:34;;;;;;;12.60;7.72;;;19.00;99.90;;;;;;5059243;28;36141;-62
2022/07/30 06:40:02;;;;;;;13.82;6.05;;;19.20;99.90;;;;;;5058805;28;35911;-62
2022/07/30 06:42:29;;;;;;;11.57;7.20;;;19.30;99.90;;;;;;5059671;28;37868;-62
2022/07/30 06:44:56;;;;;;;11.93;7.03;;;19.40;99.90;;;;;;5059330;28;36602;-62
2022/07/30 06:47:27;;;;;;;17.15;7.55;;;19.50;99.90;;;;;;5058747;28;37430;-63
2022/07/30 06:49:55;;;;;;;13.07;7.35;;;19.50;99.90;;;;;;5058153;28;36689;-63
2022/07/30 06:52:23;;;;;;;10.52;6.45;;;19.60;99.90;;;;;;5058038;28;36392;-62
2022/07/30 06:54:50;;;;;;;10.32;7.03;;;19.60;99.90;;;;;;5056832;28;39296;-63
2022/07/30 06:57:17;;;;;;;16.38;7.30;;;19.70;99.90;;;;;;5057261;28;37455;-63
2022/07/30 06:59:45;;;;;;;14.00;7.00;;;19.70;99.90;;;;;;5057373;28;37980;-63
2022/07/30 07:02:12;;;;;;;13.07;7.43;;;19.80;99.90;;;;;;5056889;28;37044;-63
2022/07/30 07:04:41;;;;;;;11.30;6.68;;;19.80;99.90;;;;;;5057009;28;37976;-63
2022/07/30 07:07:08;;;;;;;11.40;6.32;;;19.90;99.90;;;;;;5057151;28;38383;-62
2022/07/30 07:09:35;;;;;;;11.77;6.63;;;20.00;99.90;;;;;;5056870;28;35353;-63
2022/07/30 07:12:03;;;;;;;11.27;6.50;;;20.00;99.90;;;;;;5058354;28;37603;-63
2022/07/30 07:14:30;;;;;;;13.30;6.82;;;20.10;99.90;;;;;;5057829;28;37705;-63
2022/07/30 07:16:57;;;;;;;10.93;6.80;;;20.10;99.90;;;;;;5057795;28;36280;-62
2022/07/30 07:19:25;;;;;;;11.43;6.15;;;20.20;99.90;;;;;;5058453;28;36507;-62
2022/07/30 07:21:53;;;;;;;10.02;6.40;;;20.30;99.90;;;;;;5057437;28;37459;-62
2022/07/30 07:24:21;;;;;;;11.10;6.50;;;20.30;99.90;;;;;;5058602;28;37514;-63
2022/07/30 07:26:48;;;;;;;13.32;7.38;;;20.40;99.90;;;;;;5056172;28;35538;-63
2022/07/30 07:29:15;;;;;;;14.32;7.63;;;20.40;99.90;;;;;;5055482;28;36561;-64
2022/07/30 07:31:43;;;;;;;16.70;7.07;;;20.50;99.90;;;;;;5056714;28;36217;-63
2022/07/30 07:34:10;;;;;;;10.85;6.05;;;20.60;99.90;;;;;;5058752;28;37158;-63
2022/07/30 07:36:38;;;;;;;12.95;6.43;;;20.60;99.90;;;;;;5054507;28;38347;-63
2022/07/30 07:39:08;;;;;;;16.65;6.40;;;20.70;99.90;;;;;;5057097;28;35343;-63
2022/07/30 07:41:36;;;;;;;13.60;6.38;;;20.70;99.90;;;;;;5057151;28;37919;-63
2022/07/30 07:44:04;;;;;;;13.07;6.68;;;20.70;99.90;;;;;;5056829;28;37914;-63
2022/07/30 07:46:32;;;;;;;11.63;5.93;;;20.70;99.90;;;;;;5057167;28;37946;-63
2022/07/30 07:48:59;;;;;;;11.65;5.60;;;20.70;99.90;;;;;;5058484;28;35188;-63
2022/07/30 07:51:26;;;;;;;11.73;5.40;;;20.70;99.90;;;;;;5057273;28;38915;-63
2022/07/30 07:53:54;;;;;;;15.38;6.93;;;20.60;99.90;;;;;;5057639;28;39932;-63
2022/07/30 07:56:23;;;;;;;13.68;6.25;;;20.60;99.90;;;;;;5057716;28;36180;-63
2022/07/30 07:58:52;;;;;;;11.15;5.88;;;20.60;99.90;;;;;;5057664;28;36317;-63
2022/07/30 08:01:20;;;;;;;11.00;5.22;;;20.60;99.90;;;;;;5056637;28;38601;-63
2022/07/30 08:03:48;;;;;;;9.60;5.13;;;20.70;99.90;;;;;;5058289;28;38724;-64
2022/07/30 08:06:15;;;;;;;11.07;4.95;;;20.80;99.90;;;;;;5057007;28;36341;-63
2022/07/30 08:08:43;;;;;;;8.85;4.95;;;20.70;99.90;;;;;;5057361;28;36690;-63
2022/07/30 08:11:10;;;;;;;10.38;5.15;;;20.70;99.90;;;;;;5056018;28;38401;-62
2022/07/30 08:13:39;;;;;;;9.98;4.82;;;20.70;99.90;;;;;;5056878;28;38534;-63
2022/07/30 08:16:09;;;;;;;12.55;5.55;;;20.70;99.90;;;;;;5058131;28;35252;-63
2022/07/30 08:18:36;;;;;;;8.20;4.90;;;20.80;99.90;;;;;;5057369;28;36472;-63
2022/07/30 08:21:04;;;;;;;8.48;4.28;;;20.80;99.90;;;;;;5055648;28;37850;-63
2022/07/30 08:23:32;;;;;;;9.40;4.40;;;20.80;99.90;;;;;;5057315;28;36744;-63
2022/07/30 08:25:59;;;;;;;12.75;4.72;;;20.80;99.90;;;;;;5058678;28;37756;-62
2022/07/30 08:28:26;;;;;;;12.43;5.07;;;20.90;99.90;;;;;;5057613;28;36474;-63
2022/07/30 08:30:55;;;;;;;9.93;4.25;;;21.00;99.90;;;;;;5058234;28;37873;-63
2022/07/30 08:33:22;;;;;;;10.57;3.95;;;21.10;99.90;;;;;;5056521;28;37676;-60
2022/07/30 08:35:50;;;;;;;10.23;4.35;;;21.10;99.90;;;;;;5056432;28;38021;-63
2022/07/30 08:38:17;;;;;;;7.57;3.75;;;21.20;99.90;;;;;;5057028;28;36499;-63
2022/07/30 08:40:45;;;;;;;6.10;3.05;;;21.20;99.90;;;;;;5055718;28;39313;-62
2022/07/30 08:43:12;;;;;;;11.40;4.18;;;21.30;99.90;;;;;;5054758;28;37575;-63
2022/07/30 08:45:40;;;;;;;9.70;4.10;;;21.40;99.90;;;;;;5055010;28;36066;-63
2022/07/30 08:48:13;;;;;;;9.27;3.35;;;21.50;99.90;;;;;;5055954;28;36491;-62
2022/07/30 08:50:40;;;;;;;10.43;4.07;;;21.40;99.90;;;;;;5054885;28;37364;-63
2022/07/30 08:53:08;;;;;;;9.63;3.38;;;21.40;99.90;;;;;;5056521;28;38572;-63
2022/07/30 08:55:35;;;;;;;9.70;3.22;;;21.50;99.90;;;;;;5056455;28;38464;-63
2022/07/30 08:58:05;;;;;;;8.77;3.15;;;21.60;99.80;;;;;;5055495;28;36583;-63
2022/07/30 09:00:32;;;;;;;9.48;3.58;;;21.70;99.50;;;;;;5057219;28;39866;-63
2022/07/30 09:03:01;;;;;;;10.10;3.70;;;21.70;99.30;;;;;;5054987;28;39226;-63
2022/07/30 09:05:30;;;;;;;11.85;4.00;;;21.70;99.40;;;;;;5055041;28;37259;-62
2022/07/30 09:07:57;;;;;;;6.65;2.67;;;21.70;99.10;;;;;;5054613;28;36680;-63
2022/07/30 09:10:24;;;;;;;7.07;3.13;;;21.80;99.10;;;;;;5056309;28;38071;-63
2022/07/30 09:12:52;;;;;;;13.15;3.15;;;21.90;99.10;;;;;;5055790;28;38865;-63
2022/07/30 09:15:22;;;;;;;8.23;3.50;;;22.10;98.40;;;;;;5056581;28;37884;-63
2022/07/30 09:17:55;;;;;;;9.13;3.10;;;22.20;97.80;;;;;;5056149;28;34808;-63
2022/07/30 09:20:23;;;;;;;11.75;2.88;;;22.30;97.40;;;;;;5054712;28;37230;-63
2022/07/30 09:22:54;;;;;;;7.53;2.42;;;22.40;97.30;;;;;;5056343;28;37718;-63
2022/07/30 09:25:37;;;;;;;6.65;2.15;;;22.50;97.30;;;;;;5056005;28;38545;-63
2022/07/30 09:28:05;;;;;;;8.38;2.90;;;22.60;97.40;;;;;;5054594;28;35397;-63
2022/07/30 09:30:48;;;;;;;8.13;2.50;;;22.80;97.20;;;;;;5055727;28;40194;-63
2022/07/30 09:33:15;;;;;;;9.07;2.63;;;22.90;97.20;;;;;;5056521;28;39647;-63
2022/07/30 09:35:43;;;;;;;8.02;2.60;;;23.10;97.10;;;;;;5054154;28;37222;-63
2022/07/30 09:38:12;;;;;;;11.07;3.40;;;23.20;96.70;;;;;;5054660;28;37952;-63
2022/07/30 09:40:39;;;;;;;8.02;2.58;;;23.30;96.40;;;;;;5055266;28;37514;-63
2022/07/30 09:43:09;;;;;;;7.50;2.50;;;23.40;96.10;;;;;;5055568;28;38048;-63
2022/07/30 09:45:36;;;;;;;12.90;2.72;;;23.40;95.70;;;;;;5052629;28;38731;-63
2022/07/30 09:48:21;;;;;;;9.77;2.72;;;23.40;95.10;;;;;;5055396;28;36806;-63
2022/07/30 09:50:48;;;;;;;12.27;3.03;;;23.50;94.70;;;;;;5054833;28;37512;-63
2022/07/30 09:53:21;;;;;;;9.45;3.10;;;23.50;94.90;;;;;;5057557;28;38022;-63
2022/07/30 09:55:48;;;;;;;5.77;2.30;;;23.50;94.50;;;;;;5058794;28;36115;-63
2022/07/30 09:58:16;;;;;;;7.18;2.80;;;23.50;94.20;;;;;;5058941;28;37544;-63
2022/07/30 10:00:44;;;;;;;7.50;2.80;;;23.50;94.00;;;;;;5059590;28;37566;-63
2022/07/30 10:03:16;;;;;;;5.72;2.28;;;23.50;93.30;;;;;;5058826;28;36587;-63
2022/07/30 10:05:50;;;;;;;7.60;2.83;;;23.60;93.30;;;;;;5060192;28;37209;-63
2022/07/30 10:08:20;;;;;;;8.00;2.90;;;23.70;93.00;;;;;;5059519;28;36512;-63
2022/07/30 10:10:48;;;;;;;8.10;2.42;;;23.70;93.00;;;;;;5058198;28;38273;-63
2022/07/30 10:13:18;;;;;;;8.05;2.40;;;23.70;92.80;;;;;;5057933;28;39412;-63
2022/07/30 10:15:45;;;;;;;7.53;2.10;;;23.80;92.20;;;;;;5055484;28;39037;-63
2022/07/30 10:18:13;;;;;;;6.25;2.42;;;23.90;92.30;;;;;;5058169;28;36756;-63
2022/07/30 10:20:42;;;;;;;9.57;3.00;;;23.90;92.50;;;;;;5055642;28;37745;-63
2022/07/30 10:23:10;;;;;;;8.93;2.67;;;24.00;92.30;;;;;;5058901;28;38751;-63
2022/07/30 10:25:39;;;;;;;7.80;2.55;;;23.90;92.00;;;;;;5057288;28;39416;-63
2022/07/30 10:28:06;;;;;;;9.75;2.88;;;23.70;92.30;;;;;;5058804;28;37608;-63
2022/07/30 10:30:34;;;;;;;6.63;2.05;;;23.80;92.40;;;;;;5057398;28;36488;-63
2022/07/30 10:33:02;;;;;;;7.22;2.38;;;23.80;92.40;;;;;;5056240;28;37638;-63
2022/07/30 10:35:30;;;;;;;9.40;2.20;;;23.80;91.90;;;;;;5059438;28;37519;-63
2022/07/30 10:37:59;;;;;;;6.75;2.42;;;23.80;91.50;;;;;;5057701;28;36730;-63
2022/07/30 10:40:31;;;;;;;10.20;2.95;;;23.90;91.30;;;;;;5057463;28;37786;-63
2022/07/30 10:43:42;;;;;;;11.30;3.03;;;23.90;91.50;;;;;;5058334;28;36491;-63
2022/07/30 10:46:16;;;;;;;7.38;2.30;;;23.80;91.60;;;;;;5057246;28;37882;-63
2022/07/30 10:48:43;;;;;;;9.70;2.60;;;23.70;91.80;;;;;;5057264;28;36611;-63
2022/07/30 10:51:11;;;;;;;7.07;2.58;;;23.60;91.90;;;;;;5058689;28;38327;-63
2022/07/30 10:53:40;;;;;;;12.35;2.67;;;23.60;91.60;;;;;;5059612;28;36304;-63
2022/07/30 10:56:12;;;;;;;10.85;2.30;;;23.50;92.00;;;;;;5058090;28;39227;-63
2022/07/30 10:59:01;;;;;;;9.97;2.57;;;23.50;91.50;;;;;;5058662;28;37852;-63
2022/07/30 11:02:02;;;;;;;7.38;2.30;;;23.40;91.90;;;;;;5057327;28;38512;-63
2022/07/30 11:04:30;;;;;;;8.38;2.97;;;23.40;91.80;;;;;;5056239;28;39376;-63
2022/07/30 11:07:30;;;;;;;6.60;2.35;;;23.50;91.50;;;;;;5057745;28;37544;-63
2022/07/30 11:09:59;;;;;;;7.43;2.20;;;23.50;91.70;;;;;;5057615;28;37173;-63
2022/07/30 11:12:52;;;;;;;8.80;2.65;;;23.50;91.60;;;;;;5055684;28;38541;-62
2022/07/30 11:15:22;;;;;;;4.82;2.35;;;23.60;91.90;;;;;;5057958;28;41629;-63
2022/07/30 11:18:08;;;;;;;5.63;1.60;;;23.60;91.70;;;;;;5057508;28;36831;-63
2022/07/30 11:20:36;;;;;;;7.28;2.65;;;23.70;90.70;;;;;;5057374;28;37199;-63
2022/07/30 11:23:11;;;;;;;7.28;1.90;;;23.70;90.60;;;;;;5057983;28;39364;-63
2022/07/30 11:25:41;;;;;;;6.32;2.33;;;23.80;89.20;;;;;;5057123;28;37906;-63
2022/07/30 11:28:39;;;;;;;8.43;2.83;;;23.70;88.70;;;;;;5057666;28;37477;-63
2022/07/30 11:31:30;;;;;;;6.45;2.10;;;23.70;85.80;;;;;;5056499;28;38901;-63
2022/07/30 11:34:25;;;;;;;5.88;2.08;;;23.70;88.30;;;;;;5054351;28;37834;-63
2022/07/30 11:37:06;;;;;;;6.95;2.10;;;23.70;88.60;;;;;;5059139;28;36458;-63
2022/07/30 11:40:10;;;;;;;9.07;2.00;;;23.70;89.90;;;;;;5057790;28;37781;-63
2022/07/30 11:42:40;;;;;;;5.60;1.90;;;23.70;90.30;;;;;;5056988;28;35277;-63
2022/07/30 11:45:31;;;;;;;5.93;1.98;;;23.90;90.70;;;;;;5057155;28;37557;-63
2022/07/30 11:48:00;;;;;;;6.15;2.25;;;24.00;89.40;;;;;;5057398;28;37693;-63
2022/07/30 11:50:31;;;;;;;8.90;3.45;;;23.90;89.50;;;;;;5057392;28;36143;-63
2022/07/30 11:53:00;;;;;;;11.30;1.90;;;23.80;89.10;;;;;;5057335;28;37426;-63
2022/07/30 11:55:29;;;;;;;7.28;2.13;;;23.80;89.10;;;;;;5057024;28;37629;-63
2022/07/30 11:57:57;;;;;;;6.72;2.10;;;23.70;88.50;;;;;;5057227;28;36645;-63
2022/07/30 12:00:25;;;;;;;4.53;1.65;;;23.70;89.50;;;;;;5056513;28;36085;-63
2022/07/30 12:02:52;;;;;;;5.40;2.05;;;23.70;89.00;;;;;;5056545;28;38849;-63
2022/07/30 12:05:27;;;;;;;4.75;1.90;;;23.70;86.90;;;;;;5056254;28;38566;-63
2022/07/30 12:07:58;;;;;;;5.10;2.13;;;23.60;86.70;;;;;;5057876;28;37669;-63
2022/07/30 12:10:25;;;;;;;7.40;1.95;;;23.50;87.20;;;;;;5055340;28;37289;-63
2022/07/30 12:12:53;;;;;;;4.45;1.50;;;23.40;87.20;;;;;;5057464;28;35266;-63
2022/07/30 12:15:31;;;;;;;6.88;1.92;;;23.40;87.20;;;;;;5055097;28;38463;-63
2022/07/30 12:17:59;;;;;;;6.10;2.15;;;23.40;87.40;;;;;;5055026;28;37793;-63
2022/07/30 12:20:29;;;;;;;4.85;2.00;;;23.40;87.30;;;;;;5057601;28;36887;-63
2022/07/30 12:22:56;;;;;;;5.30;1.98;;;23.50;87.30;;;;;;5057899;28;35352;-63
2022/07/30 12:25:24;;;;;;;8.30;2.47;;;23.50;86.90;;;;;;5056791;28;37881;-63
2022/07/30 12:27:54;;;;;;;11.32;2.03;;;23.50;86.70;;;;;;5057435;28;37697;-63
2022/07/30 12:30:22;;;;;;;6.00;1.75;;;23.40;86.30;;;;;;5056970;28;38344;-63
2022/07/30 12:32:50;;;;;;;6.18;2.00;;;23.30;87.10;;;;;;5056476;28;36998;-63
2022/07/30 12:35:18;;;;;;;5.07;1.98;;;23.30;87.70;;;;;;5054453;28;37514;-63
2022/07/30 12:38:04;;;;;;;7.07;2.00;;;23.40;88.30;;;;;;5057447;28;37695;-63
2022/07/30 12:40:32;;;;;;;5.35;1.85;;;23.40;87.70;;;;;;5056656;28;38992;-63
2022/07/30 12:42:59;;;;;;;4.93;1.58;;;23.30;88.00;;;;;;5054350;28;35319;-63
2022/07/30 12:45:28;;;;;;;6.63;1.90;;;23.30;87.80;;;;;;5057843;28;37647;-63
2022/07/30 12:47:56;;;;;;;4.47;1.45;;;23.20;87.80;;;;;;5056361;28;37408;-63
2022/07/30 12:50:24;;;;;;;8.43;2.25;;;23.30;86.80;;;;;;5058001;28;41302;-63
2022/07/30 12:52:54;;;;;;;5.22;1.65;;;23.30;87.90;;;;;;5056700;28;37773;-63
2022/07/30 12:55:31;;;;;;;5.88;2.00;;;23.40;88.20;;;;;;5057627;28;36385;-63
2022/07/30 12:58:01;;;;;;;3.97;1.70;;;23.40;88.70;;;;;;5056096;28;37567;-63
2022/07/30 13:00:31;;;;;;;5.30;1.80;;;23.50;89.10;;;;;;5056986;28;37215;-63